createdAt,value
2019-05-28T00:16:35.096Z,14.10
2019-05-28T00:19:04.228Z,13.40
2019-05-28T00:21:32.825Z,13.90
2019-05-28T00:24:01.410Z,13.60
2019-05-28T00:28:58.285Z,14.00
2019-05-28T00:33:55.219Z,13.90
2019-05-28T00:38:52.048Z,13.90
2019-05-28T01:03:35.609Z,13.90
2019-05-28T01:06:04.213Z,13.90
2019-05-28T01:08:32.911Z,13.90
2019-05-28T01:13:29.747Z,13.60
2019-05-28T01:15:58.324Z,14.10
2019-05-28T01:20:55.195Z,13.80
2019-05-28T01:23:23.831Z,13.80
2019-05-28T01:25:52.389Z,14.10
2019-05-28T01:35:47.424Z,13.60
2019-05-28T01:50:37.270Z,13.40
2019-05-28T01:53:05.804Z,13.90
2019-05-28T01:58:02.646Z,13.60
2019-05-28T02:02:59.482Z,13.90
2019-05-28T02:05:28.111Z,13.30
2019-05-28T02:10:24.978Z,13.90
2019-05-28T02:12:53.592Z,13.90
2019-05-28T02:17:50.677Z,13.40
2019-05-28T02:20:19.392Z,13.60
2019-05-28T02:25:16.570Z,13.40
2019-05-28T02:30:15.604Z,13.50
2019-05-28T02:32:44.148Z,13.70
2019-05-28T02:40:10.488Z,14.30
2019-05-28T02:47:36.597Z,13.50
2019-05-28T02:50:06.842Z,13.80
2019-05-28T02:55:06.700Z,13.80
2019-05-28T03:00:05.892Z,13.90
2019-05-28T03:05:03.696Z,13.70
2019-05-28T03:10:04.510Z,13.50
2019-05-28T03:27:26.687Z,13.20
2019-05-28T03:29:55.377Z,13.80
2019-05-28T03:32:23.912Z,13.40
2019-05-28T03:37:21.071Z,13.40
2019-05-28T03:44:47.689Z,13.60
2019-05-28T03:52:12.813Z,13.50
2019-05-28T03:57:09.672Z,13.30
2019-05-28T04:02:20.628Z,13.70
2019-05-28T04:07:05.072Z,13.80
2019-05-28T04:12:02.620Z,13.80
2019-05-28T04:14:31.187Z,13.80
2019-05-28T04:16:59.811Z,13.60
2019-05-28T04:19:28.467Z,13.70
2019-05-28T04:21:57.077Z,13.50
2019-05-28T04:26:53.929Z,13.90
2019-05-28T04:31:50.705Z,13.80
2019-05-28T04:41:44.182Z,13.60
2019-05-28T04:51:37.502Z,13.70
2019-05-28T05:04:00.992Z,13.90
2019-05-28T05:06:29.614Z,14.00
2019-05-28T05:08:58.230Z,14.10
2019-05-28T05:11:26.786Z,13.80
2019-05-28T05:13:55.467Z,14.00
2019-05-28T05:16:23.975Z,13.60
2019-05-28T05:18:52.530Z,13.90
2019-05-28T05:28:46.352Z,14.00
2019-05-28T05:41:08.271Z,13.80
2019-05-28T05:48:33.392Z,14.00
2019-05-28T05:53:30.494Z,14.00
2019-05-28T05:55:58.989Z,14.00
2019-05-28T06:00:55.886Z,13.90
2019-05-28T06:10:50.865Z,13.90
2019-05-28T06:13:19.476Z,14.00
2019-05-28T06:18:16.342Z,13.70
2019-05-28T06:23:13.529Z,14.10
2019-05-28T06:25:42.527Z,14.00
2019-05-28T06:28:11.135Z,14.20
2019-05-28T06:43:01.221Z,14.20
2019-05-28T06:45:29.855Z,14.10
2019-05-28T06:47:58.561Z,14.40
2019-05-28T06:57:51.895Z,14.00
2019-05-28T07:02:48.944Z,14.60
2019-05-28T07:10:14.286Z,14.00
2019-05-28T07:12:43.065Z,14.50
2019-05-28T07:25:07.439Z,14.50
2019-05-28T07:30:07.659Z,14.80
2019-05-28T07:32:36.513Z,14.70
2019-05-28T07:35:07.517Z,14.70
2019-05-28T07:37:36.070Z,15.00
2019-05-28T07:42:34.404Z,14.70
2019-05-28T07:45:03.128Z,15.20
2019-05-28T07:50:00.034Z,14.90
2019-05-28T07:59:53.535Z,15.10
2019-05-28T08:04:50.408Z,15.40
2019-05-28T08:12:15.732Z,15.40
2019-05-28T08:17:12.578Z,15.30
2019-05-28T08:22:09.496Z,15.30
2019-05-28T08:32:02.954Z,15.10
2019-05-28T08:34:31.519Z,15.10
2019-05-28T08:37:06.010Z,14.90
2019-05-28T08:39:33.529Z,15.10
2019-05-28T08:51:53.757Z,14.80
2019-05-28T08:54:22.422Z,14.70
2019-05-28T08:56:51.037Z,15.10
2019-05-28T09:04:16.164Z,15.00
2019-05-28T09:06:44.717Z,15.20
2019-05-28T09:09:13.318Z,15.00
2019-05-28T09:14:10.225Z,15.20
2019-05-28T09:19:10.267Z,15.50
2019-05-28T09:24:05.843Z,14.70
2019-05-28T09:26:34.716Z,15.30
2019-05-28T09:29:03.283Z,15.40
2019-05-28T09:36:28.502Z,15.70
2019-05-28T09:41:26.243Z,15.40
2019-05-28T09:43:54.794Z,15.40
2019-05-28T09:53:48.196Z,15.00
2019-05-28T09:58:45.087Z,15.10
2019-05-28T10:03:42.086Z,14.90
2019-05-28T10:06:16.942Z,14.90
2019-05-28T10:08:40.965Z,14.60
2019-05-28T10:18:35.969Z,14.80
2019-05-28T10:23:35.855Z,13.90
2019-05-28T10:26:04.613Z,14.40
2019-05-28T10:28:33.232Z,14.50
2019-05-28T10:31:01.846Z,14.40
2019-05-28T10:33:30.485Z,14.50
2019-05-28T10:35:59.111Z,14.60
2019-05-28T10:38:27.661Z,14.20
2019-05-28T10:45:53.128Z,14.90
2019-05-28T10:48:21.823Z,14.80
2019-05-28T10:50:50.519Z,14.60
2019-05-28T11:00:43.966Z,14.80
2019-05-28T11:03:12.527Z,15.00
2019-05-28T11:05:41.157Z,15.40
2019-05-28T11:10:37.995Z,15.10
2019-05-28T11:13:06.657Z,15.20
2019-05-28T11:18:03.585Z,15.10
2019-05-28T11:23:01.007Z,15.40
2019-05-28T11:30:26.391Z,15.00
2019-05-28T11:37:51.715Z,15.10
2019-05-28T11:40:20.845Z,15.10
2019-05-28T11:50:17.374Z,15.00
2019-05-28T11:52:46.031Z,14.90
2019-05-28T11:57:43.535Z,15.20
2019-05-28T12:07:38.223Z,15.40
2019-05-28T12:10:07.793Z,15.30
2019-05-28T12:15:08.873Z,15.10
2019-05-28T12:25:06.863Z,15.10
2019-05-28T12:30:05.654Z,15.40
2019-05-28T12:40:00.790Z,15.50
2019-05-28T12:45:08.875Z,15.40
2019-05-28T12:52:26.419Z,15.30
2019-05-28T13:07:16.712Z,14.20
2019-05-28T13:24:36.530Z,12.30
2019-05-28T13:29:35.205Z,12.30
2019-05-28T13:49:23.359Z,12.10
2019-05-28T13:51:52.930Z,12.30
2019-05-28T13:54:21.736Z,12.60
2019-05-28T14:01:46.968Z,12.90
2019-05-28T14:09:13.608Z,13.80
2019-05-28T14:11:42.194Z,13.60
2019-05-28T14:14:10.856Z,13.90
2019-05-28T14:16:39.458Z,13.90
2019-05-28T14:26:33.076Z,13.90
2019-05-28T14:33:58.275Z,13.80
2019-05-28T14:36:26.898Z,14.10
2019-05-28T14:43:53.742Z,13.70
2019-05-28T14:46:22.333Z,14.00
2019-05-28T14:53:47.402Z,14.00
2019-05-28T15:06:09.074Z,13.30
2019-05-28T15:08:37.653Z,13.10
2019-05-28T15:11:06.262Z,13.20
2019-05-28T15:16:03.149Z,12.80
2019-05-28T15:18:31.781Z,12.90
2019-05-28T15:21:00.359Z,13.30
2019-05-28T15:25:57.209Z,13.00
2019-05-28T15:30:54.224Z,13.10
2019-05-28T15:33:22.850Z,13.10
2019-05-28T15:40:47.940Z,13.30
2019-05-28T15:43:16.546Z,12.90
2019-05-28T15:48:13.437Z,12.90
2019-05-28T15:55:38.798Z,13.00
2019-05-28T16:00:35.690Z,12.50
2019-05-28T16:08:00.871Z,12.60
2019-05-28T16:12:57.814Z,12.50
2019-05-28T16:27:47.937Z,12.40
2019-05-28T16:30:16.943Z,12.60
2019-05-28T16:42:40.637Z,12.80
2019-05-28T16:47:38.956Z,12.60
2019-05-28T17:02:31.229Z,12.50
2019-05-28T17:07:28.188Z,12.40
2019-05-28T17:09:56.823Z,11.90
2019-05-28T17:32:12.175Z,11.70
2019-05-28T17:42:05.591Z,11.90
2019-05-28T17:49:30.720Z,11.80
2019-05-28T17:54:27.583Z,11.90
2019-05-28T18:01:52.701Z,11.80
2019-05-28T18:09:17.892Z,12.00
2019-05-28T18:14:14.740Z,11.90
2019-05-28T18:16:43.347Z,11.80
2019-05-28T18:19:11.910Z,12.20
2019-05-28T18:34:01.904Z,12.00
2019-05-28T18:36:30.504Z,12.20
2019-05-28T18:41:27.362Z,12.10
2019-05-28T18:46:24.349Z,11.60
2019-05-28T18:48:53.020Z,12.10
2019-05-28T19:11:38.466Z,11.60
2019-05-28T19:14:07.176Z,11.90
2019-05-28T19:16:36.282Z,11.70
2019-05-28T19:21:33.211Z,11.90
2019-05-28T19:28:58.388Z,11.80
2019-05-28T19:53:42.355Z,11.70
2019-05-28T19:56:10.949Z,11.50
2019-05-28T20:15:57.076Z,11.10
2019-05-28T20:18:27.251Z,11.30
2019-05-28T20:25:56.048Z,11.30
2019-05-28T20:28:24.874Z,11.20
2019-05-28T20:33:21.572Z,11.30
2019-05-28T20:35:50.246Z,11.60
2019-05-28T20:38:19.039Z,11.60
2019-05-28T20:50:40.631Z,11.10
2019-05-28T21:00:33.841Z,11.10
2019-05-28T21:05:30.503Z,11.50
2019-05-28T21:32:41.095Z,11.20
2019-05-28T21:37:38.101Z,11.10
2019-05-28T21:54:59.235Z,11.30
2019-05-28T22:27:06.347Z,11.30
2019-05-28T22:32:03.051Z,11.20
2019-05-28T22:37:00.306Z,11.30
2019-05-28T22:41:59.520Z,11.00
2019-05-28T22:46:57.007Z,11.20
2019-05-28T23:06:42.837Z,11.20
2019-05-28T23:11:39.423Z,11.30
2019-05-28T23:14:08.227Z,11.00
2019-05-28T23:31:25.916Z,11.20
2019-05-28T23:33:54.377Z,11.10
2019-05-28T23:41:19.141Z,11.20
2019-05-28T23:44:01.160Z,11.00
2019-05-28T23:51:14.628Z,11.10
2019-05-28T23:53:43.082Z,11.10
